ETHB 192320Z AUTO 27007KT 9999 // ////// 17/16 Q1020 /// ETHB 192220Z AUTO 25006KT 9999 // ////// 17/16 Q1020 /// ETHB 192120Z AUTO 25007KT 9999 // ////// 17/15 Q1019 /// ETHB 192020Z AUTO 24007KT 9999 // ////// 17/16 Q1019 /// ETHB 191920Z AUTO 24008KT 9999 // ////// 17/16 Q1018 /// ETHB 191820Z AUTO 22009KT 9999 // ////// 18/16 Q1018 /// ETHB 191720Z AUTO 18009KT 9999 // ////// 18/17 Q1017 /// ETHB 191620Z 17003KT 9999 -RA FEW020 BKN100 18/16 Q1018 RETSRA BLU ETHB 191520Z 30025G36KT 9000 TSRA SCT030CB BKN060 20/14 Q1019 BLU ETHB 191504Z 28021G42KT 9999 VCTS FEW030CB BKN050 BKN090 23/12 Q1018 BLU ETHB 191501Z 25015G42KT 9999 VCSH FEW050 BKN090 25/12 Q1018 BLU ETHB 191420Z 20011KT 9999 FEW060 BKN090 BKN210 27/12 Q1015 BLU FCST CNL ETHB 191320Z 19009KT 9999 FEW060 BKN220 28/12 Q1016 BLU+BLU+ ETHB 191220Z 19013KT 9999 FEW060 BKN220 28/11 Q1016 BLU+BLU+ ETHB 191120Z 21012KT 9999 SCT130 BKN220 26/10 Q1017 BLU+BLU+ ETHB 191020Z 18011KT 9999 FEW060 BKN220 25/10 Q1018 BLU+BLU+ ETHB 190920Z 19011KT 9999 FEW058 BKN220 24/10 Q1018 BLU+BLU+ ETHB 190820Z 19008KT 9999 FEW054 BKN230 24/11 Q1018 BLU+BLU+ ETHB 190720Z 19013KT 9999 FEW040 BKN240 23/11 Q1018 BLU+BLU+ ETHB 190620Z 18008KT 9999 FEW040 SCT240 BKN310 22/12 Q1019 BLU+BLU+ ETHB 190520Z 19011KT 9999 BKN260 21/12 Q1019 BLU+BLU+ ETHB 190420Z 18007KT 9999 FEW150 BKN260 20/12 Q1019 BLU+BLU+ ETHB 190320Z 18007KT 9999 BKN240 19/13 Q1018 BLU+ ETHB 190220Z 17007KT 9999 BKN240 20/13 Q1019 BLU+ ETHB 190120Z 17007KT 9999 BKN240 20/13 Q1019 BLU+ ETHB 190020Z 17006KT 9999 BKN240 20/13 Q1019 BLU+ ETHB 182320Z 17008KT 9999 BKN240 22/13 Q1019 BLU+ ETHB 182220Z 17008KT 9999 BKN250 22/13 Q1020 BLU+ ETHB 182120Z 17007KT 9999 FEW120 BKN260 22/13 Q1020 BLU+ ETHB 182020Z 16005KT 9999 FEW120 BKN260 22/14 Q1020 BLU+ ETHB 181920Z 17006KT 9999 FEW120 BKN240 23/14 Q1020 BLU+ ETHB 181820Z 18005KT 9999 FEW100 BKN250 25/14 Q1020 BLU+ ETHB 181720Z 20005KT 9999 FEW055 BKN340 27/14 Q1020 BLU+FCST CNL ETHB 181620Z 20007KT 9999 FEW055 BKN380 28/13 Q1020 BLU+BLU+ ETHB 181520Z 15005KT 9999 FEW055 BKN380 28/14 Q1020 BLU+BLU+ ETHB 181420Z 21008KT 9999 FEW058 BKN390 28/13 Q1020 BLU+BLU+ ETHB 181320Z 15008KT 9999 FEW052 BKN350 27/15 Q1021 BLU+BLU+

METAR Messwerte "BUCKEBURG(GER-AR" ETHB

Zurück zur Übersicht

Ortsname
Ländercode / m ü. NN
Zeit Temperatur Taupunkt Rel.
Luftfeuchte
Luftdruck:
Altimeter
NN
Station
Wind in Beaufort
(Knoten)
Sichtweite
(Meter)
Wolken
(Meter über Grund)
Wettererscheinung
BUCKEBURG(GER-AR
DE 69
Fr 20.05. 01:20171694 %1020
1020
1012
W 3 (7)>= 10000  
BUCKEBURG(GER-AR
DE 69
Fr 20.05. 00:20171694 %1020
1020
1012
WSW 2 (6)>= 10000  
BUCKEBURG(GER-AR
DE 69
Do 19.05. 23:20171588 %1019
1019
1011
WSW 3 (7)>= 10000  
BUCKEBURG(GER-AR
DE 69
Do 19.05. 22:20171694 %1019
1019
1011
WSW 3 (7)>= 10000  
BUCKEBURG(GER-AR
DE 69
Do 19.05. 21:20171694 %1018
1018
1010
WSW 3 (8)>= 10000  
BUCKEBURG(GER-AR
DE 69
Do 19.05. 20:20181688 %1018
1018
1010
SW 3 (9)>= 10000  
BUCKEBURG(GER-AR
DE 69
Do 19.05. 19:20181794 %1017
1017
1009
S 3 (9)>= 10000  
BUCKEBURG(GER-AR
DE 69
Do 19.05. 18:20181688 %1018
1018
1010
S 2 (3)>= 10000Stark bewölkt (3000)
Leicht bewölkt (610)
Regen (schwach)
BUCKEBURG(GER-AR
DE 69
Do 19.05. 17:20201468 %1019
1019
1011
WNW 6 (25) - 8 (36)9000Stark bewölkt (1800)
Wolkig Cb (910)
Gewitter mit Regen
BUCKEBURG(GER-AR
DE 69
Do 19.05. 17:04231250 %1018
1018
1010
W 6 (21) - 9 (42)>= 10000Stark bewölkt (2700)
Stark bewölkt (1500)
Leicht bewölkt Cb (910)
 
BUCKEBURG(GER-AR
DE 69
Do 19.05. 17:01251244 %1018
1018
1010
WSW 4 (15) - 9 (42)>= 10000Stark bewölkt (2700)
Leicht bewölkt (1500)
 
BUCKEBURG(GER-AR
DE 69
Do 19.05. 16:20271239 %1015
1015
1007
SSW 4 (11)>= 10000Stark bewölkt (6400)
Stark bewölkt (2700)
Leicht bewölkt (1800)
 
BUCKEBURG(GER-AR
DE 69
Do 19.05. 15:20281237 %1016
1016
1008
S 3 (9)>= 10000Stark bewölkt (6700)
Leicht bewölkt (1800)
 
BUCKEBURG(GER-AR
DE 69
Do 19.05. 14:20281135 %1016
1016
1008
S 4 (13)>= 10000Stark bewölkt (6700)
Leicht bewölkt (1800)
 
BUCKEBURG(GER-AR
DE 69
Do 19.05. 13:20261037 %1017
1017
1009
SSW 4 (12)>= 10000Stark bewölkt (6700)
Wolkig (4000)
 
BUCKEBURG(GER-AR
DE 69
Do 19.05. 12:20251039 %1018
1018
1010
S 4 (11)>= 10000Stark bewölkt (6700)
Leicht bewölkt (1800)
 
BUCKEBURG(GER-AR
DE 69
Do 19.05. 11:20241041 %1018
1018
1010
S 4 (11)>= 10000Stark bewölkt (6700)
Leicht bewölkt (1800)
 
BUCKEBURG(GER-AR
DE 69
Do 19.05. 10:20241144 %1018
1018
1010
S 3 (8)>= 10000Stark bewölkt (7000)
Leicht bewölkt (1600)
 
BUCKEBURG(GER-AR
DE 69
Do 19.05. 09:20231147 %1018
1018
1010
S 4 (13)>= 10000Stark bewölkt (7300)
Leicht bewölkt (1200)
 
BUCKEBURG(GER-AR
DE 69
Do 19.05. 08:20221253 %1019
1019
1011
S 3 (8)>= 10000Stark bewölkt (9400)
Wolkig (7300)
Leicht bewölkt (1200)
 
BUCKEBURG(GER-AR
DE 69
Do 19.05. 07:20211256 %1019
1019
1011
S 4 (11)>= 10000Stark bewölkt (7900) 
BUCKEBURG(GER-AR
DE 69
Do 19.05. 06:20201260 %1019
1019
1011
S 3 (7)>= 10000Stark bewölkt (7900)
Leicht bewölkt (4600)
 
BUCKEBURG(GER-AR
DE 69
Do 19.05. 05:20191368 %1018
1018
1010
S 3 (7)>= 10000Stark bewölkt (7300) 
BUCKEBURG(GER-AR
DE 69
Do 19.05. 04:20201364 %1019
1019
1011
S 3 (7)>= 10000Stark bewölkt (7300) 
BUCKEBURG(GER-AR
DE 69
Do 19.05. 03:20201364 %1019
1019
1011
S 3 (7)>= 10000Stark bewölkt (7300) 
BUCKEBURG(GER-AR
DE 69
Do 19.05. 02:20201364 %1019
1019
1011
S 2 (6)>= 10000Stark bewölkt (7300) 
BUCKEBURG(GER-AR
DE 69
Do 19.05. 01:20221357 %1019
1019
1011
S 3 (8)>= 10000Stark bewölkt (7300) 
BUCKEBURG(GER-AR
DE 69
Do 19.05. 00:20221357 %1020
1020
1012
S 3 (8)>= 10000Stark bewölkt (7600) 
BUCKEBURG(GER-AR
DE 69
Mi 18.05. 23:20221357 %1020
1020
1012
S 3 (7)>= 10000Stark bewölkt (7900)
Leicht bewölkt (3700)
 
BUCKEBURG(GER-AR
DE 69
Mi 18.05. 22:20221460 %1020
1020
1012
SSO 2 (5)>= 10000Stark bewölkt (7900)
Leicht bewölkt (3700)
 
BUCKEBURG(GER-AR
DE 69
Mi 18.05. 21:20231457 %1020
1020
1012
S 2 (6)>= 10000Stark bewölkt (7300)
Leicht bewölkt (3700)
 
BUCKEBURG(GER-AR
DE 69
Mi 18.05. 20:20251450 %1020
1020
1012
S 2 (5)>= 10000Stark bewölkt (7600)
Leicht bewölkt (3000)
 
BUCKEBURG(GER-AR
DE 69
Mi 18.05. 19:20271445 %1020
1020
1012
SSW 2 (5)>= 10000Stark bewölkt (10000)
Leicht bewölkt (1700)
 
BUCKEBURG(GER-AR
DE 69
Mi 18.05. 18:20281340 %1020
1020
1012
SSW 3 (7)>= 10000Stark bewölkt (12000)
Leicht bewölkt (1700)
 
BUCKEBURG(GER-AR
DE 69
Mi 18.05. 17:20281442 %1020
1020
1012
SSO 2 (5)>= 10000Stark bewölkt (12000)
Leicht bewölkt (1700)
 
BUCKEBURG(GER-AR
DE 69
Mi 18.05. 16:20281340 %1020
1020
1012
SSW 3 (8)>= 10000Stark bewölkt (12000)
Leicht bewölkt (1800)
 
BUCKEBURG(GER-AR
DE 69
Mi 18.05. 15:20271548 %1021
1021
1013
SSO 3 (8)>= 10000Stark bewölkt (11000)
Leicht bewölkt (1600)
 

Altimeter: Einstellung am Altimeter (Höhenmesser), die Höhe 0 muss auf diesen Luftdruckwert zeigen, damit das Gerät die Stationshöhe richtig anzeigt.

NN: Luftdruck reduziert auf "Normal Null", auf Meereshöhe, dieser von der Temperatur abhängige Wert wird bisweilen unkorrekt einfach als "Luftdruck" bezeichnet. Eigentlich nur eine fiktive Größe, die es erlaubt, Stationen auf unterschiedlichen Höhen miteinander zu vergleichen.

Station: Realer Luftdruck an der Station.